sensor_id;sensor_type;location;lat;lon;timestamp;P1;durP1;ratioP1;P2;durP2;ratioP2
44816;SDS011;30529;53.570;9.964;2022-11-11T00:01:01;6.13;;;1.70;;
44816;SDS011;30529;53.570;9.964;2022-11-11T00:03:32;6.03;;;2.03;;
44816;SDS011;30529;53.570;9.964;2022-11-11T00:05:59;7.70;;;3.20;;
44816;SDS011;30529;53.570;9.964;2022-11-11T00:08:29;9.77;;;2.13;;
44816;SDS011;30529;53.570;9.964;2022-11-11T00:11:09;6.67;;;2.20;;
44816;SDS011;30529;53.570;9.964;2022-11-11T00:13:37;7.97;;;2.30;;
44816;SDS011;30529;53.570;9.964;2022-11-11T00:16:04;8.40;;;2.83;;
44816;SDS011;30529;53.570;9.964;2022-11-11T00:18:31;7.87;;;2.93;;
44816;SDS011;30529;53.570;9.964;2022-11-11T00:21:21;7.90;;;2.13;;
44816;SDS011;30529;53.570;9.964;2022-11-11T00:27:09;6.27;;;2.37;;
44816;SDS011;30529;53.570;9.964;2022-11-11T00:29:36;6.17;;;2.50;;
44816;SDS011;30529;53.570;9.964;2022-11-11T00:32:04;7.67;;;3.07;;
44816;SDS011;30529;53.570;9.964;2022-11-11T00:34:56;8.13;;;3.03;;
44816;SDS011;30529;53.570;9.964;2022-11-11T00:37:42;5.50;;;3.00;;
44816;SDS011;30529;53.570;9.964;2022-11-11T00:40:10;10.73;;;3.40;;
44816;SDS011;30529;53.570;9.964;2022-11-11T00:42:37;7.67;;;3.37;;
44816;SDS011;30529;53.570;9.964;2022-11-11T00:45:04;10.10;;;3.30;;
44816;SDS011;30529;53.570;9.964;2022-11-11T00:47:31;12.83;;;3.10;;
44816;SDS011;30529;53.570;9.964;2022-11-11T00:50:16;6.73;;;2.87;;
44816;SDS011;30529;53.570;9.964;2022-11-11T00:53:21;6.53;;;3.27;;
44816;SDS011;30529;53.570;9.964;2022-11-11T00:55:48;9.17;;;2.50;;
44816;SDS011;30529;53.570;9.964;2022-11-11T00:58:15;9.63;;;3.10;;
44816;SDS011;30529;53.570;9.964;2022-11-11T01:00:42;8.23;;;3.90;;
44816;SDS011;30529;53.570;9.964;2022-11-11T01:03:08;6.60;;;3.33;;
44816;SDS011;30529;53.570;9.964;2022-11-11T01:05:38;10.50;;;3.47;;
44816;SDS011;30529;53.570;9.964;2022-11-11T01:08:04;8.60;;;3.47;;
44816;SDS011;30529;53.570;9.964;2022-11-11T01:10:30;5.80;;;3.17;;
44816;SDS011;30529;53.570;9.964;2022-11-11T01:13:04;9.27;;;3.47;;
44816;SDS011;30529;53.570;9.964;2022-11-11T01:15:37;8.70;;;3.37;;
44816;SDS011;30529;53.570;9.964;2022-11-11T01:18:04;12.37;;;3.90;;
44816;SDS011;30529;53.570;9.964;2022-11-11T01:20:30;7.23;;;3.00;;
44816;SDS011;30529;53.570;9.964;2022-11-11T01:22:57;5.97;;;3.07;;
44816;SDS011;30529;53.570;9.964;2022-11-11T01:25:23;9.40;;;3.70;;
44816;SDS011;30529;53.570;9.964;2022-11-11T01:27:49;9.83;;;3.33;;
44816;SDS011;30529;53.570;9.964;2022-11-11T01:30:15;10.33;;;3.63;;
44816;SDS011;30529;53.570;9.964;2022-11-11T01:32:41;9.40;;;3.63;;
44816;SDS011;30529;53.570;9.964;2022-11-11T01:35:07;9.33;;;3.83;;
44816;SDS011;30529;53.570;9.964;2022-11-11T01:37:33;9.17;;;3.30;;
44816;SDS011;30529;53.570;9.964;2022-11-11T01:40:00;7.50;;;3.03;;
44816;SDS011;30529;53.570;9.964;2022-11-11T01:42:27;5.30;;;2.83;;
44816;SDS011;30529;53.570;9.964;2022-11-11T01:44:53;7.57;;;3.17;;
44816;SDS011;30529;53.570;9.964;2022-11-11T01:47:19;7.73;;;3.40;;
44816;SDS011;30529;53.570;9.964;2022-11-11T01:49:57;9.27;;;3.50;;
44816;SDS011;30529;53.570;9.964;2022-11-11T01:52:35;11.63;;;3.63;;
44816;SDS011;30529;53.570;9.964;2022-11-11T01:55:25;6.27;;;3.50;;
44816;SDS011;30529;53.570;9.964;2022-11-11T01:57:58;6.33;;;3.20;;
44816;SDS011;30529;53.570;9.964;2022-11-11T02:00:29;10.93;;;3.77;;
44816;SDS011;30529;53.570;9.964;2022-11-11T02:02:59;9.90;;;3.40;;
44816;SDS011;30529;53.570;9.964;2022-11-11T02:05:31;9.70;;;3.37;;
44816;SDS011;30529;53.570;9.964;2022-11-11T02:08:25;6.73;;;3.50;;
44816;SDS011;30529;53.570;9.964;2022-11-11T02:11:01;6.93;;;3.23;;
44816;SDS011;30529;53.570;9.964;2022-11-11T02:13:37;7.20;;;3.67;;
44816;SDS011;30529;53.570;9.964;2022-11-11T02:16:23;15.63;;;4.33;;
44816;SDS011;30529;53.570;9.964;2022-11-11T02:18:50;10.57;;;3.63;;
44816;SDS011;30529;53.570;9.964;2022-11-11T02:21:24;9.53;;;3.77;;
44816;SDS011;30529;53.570;9.964;2022-11-11T02:24:02;8.80;;;4.00;;
44816;SDS011;30529;53.570;9.964;2022-11-11T02:26:29;9.97;;;3.70;;
44816;SDS011;30529;53.570;9.964;2022-11-11T02:29:11;12.87;;;4.20;;
44816;SDS011;30529;53.570;9.964;2022-11-11T02:31:44;8.63;;;3.67;;
44816;SDS011;30529;53.570;9.964;2022-11-11T02:34:10;8.83;;;3.87;;
44816;SDS011;30529;53.570;9.964;2022-11-11T02:36:36;8.23;;;3.50;;
44816;SDS011;30529;53.570;9.964;2022-11-11T02:39:03;8.43;;;3.70;;
44816;SDS011;30529;53.570;9.964;2022-11-11T02:41:30;10.43;;;3.67;;
44816;SDS011;30529;53.570;9.964;2022-11-11T02:44:14;9.03;;;4.03;;
44816;SDS011;30529;53.570;9.964;2022-11-11T02:46:41;8.03;;;3.63;;
44816;SDS011;30529;53.570;9.964;2022-11-11T02:49:07;8.00;;;3.30;;
44816;SDS011;30529;53.570;9.964;2022-11-11T02:51:33;12.20;;;3.47;;
44816;SDS011;30529;53.570;9.964;2022-11-11T02:53:59;5.37;;;3.07;;
44816;SDS011;30529;53.570;9.964;2022-11-11T02:56:27;8.43;;;2.97;;
44816;SDS011;30529;53.570;9.964;2022-11-11T02:59:13;9.83;;;3.07;;
44816;SDS011;30529;53.570;9.964;2022-11-11T03:01:39;9.83;;;3.87;;
44816;SDS011;30529;53.570;9.964;2022-11-11T03:04:05;7.40;;;3.20;;
44816;SDS011;30529;53.570;9.964;2022-11-11T03:06:31;8.90;;;3.40;;
44816;SDS011;30529;53.570;9.964;2022-11-11T03:08:57;10.13;;;3.83;;
44816;SDS011;30529;53.570;9.964;2022-11-11T03:11:24;9.20;;;3.30;;
44816;SDS011;30529;53.570;9.964;2022-11-11T03:13:56;8.73;;;3.07;;
44816;SDS011;30529;53.570;9.964;2022-11-11T03:16:23;8.60;;;3.37;;
44816;SDS011;30529;53.570;9.964;2022-11-11T03:19:08;9.50;;;3.47;;
44816;SDS011;30529;53.570;9.964;2022-11-11T03:21:35;7.63;;;3.10;;
44816;SDS011;30529;53.570;9.964;2022-11-11T03:24:01;9.03;;;3.33;;
44816;SDS011;30529;53.570;9.964;2022-11-11T03:26:27;6.27;;;2.97;;
44816;SDS011;30529;53.570;9.964;2022-11-11T03:28:53;5.93;;;2.97;;
44816;SDS011;30529;53.570;9.964;2022-11-11T03:31:19;8.53;;;2.97;;
44816;SDS011;30529;53.570;9.964;2022-11-11T03:33:46;10.93;;;3.23;;
44816;SDS011;30529;53.570;9.964;2022-11-11T03:36:12;7.77;;;3.40;;
44816;SDS011;30529;53.570;9.964;2022-11-11T03:38:38;10.77;;;3.90;;
44816;SDS011;30529;53.570;9.964;2022-11-11T03:41:04;11.87;;;3.97;;
44816;SDS011;30529;53.570;9.964;2022-11-11T03:43:32;8.07;;;3.50;;
44816;SDS011;30529;53.570;9.964;2022-11-11T03:46:01;10.57;;;4.00;;
44816;SDS011;30529;53.570;9.964;2022-11-11T03:48:31;7.77;;;3.50;;
44816;SDS011;30529;53.570;9.964;2022-11-11T03:50:58;8.87;;;3.83;;
44816;SDS011;30529;53.570;9.964;2022-11-11T03:53:24;12.00;;;3.77;;
44816;SDS011;30529;53.570;9.964;2022-11-11T03:55:50;9.07;;;4.00;;
44816;SDS011;30529;53.570;9.964;2022-11-11T03:58:20;10.47;;;3.23;;
44816;SDS011;30529;53.570;9.964;2022-11-11T04:00:46;6.40;;;3.47;;
44816;SDS011;30529;53.570;9.964;2022-11-11T04:03:13;6.80;;;3.23;;
44816;SDS011;30529;53.570;9.964;2022-11-11T04:06:02;8.03;;;3.47;;
44816;SDS011;30529;53.570;9.964;2022-11-11T04:08:47;8.00;;;3.57;;
44816;SDS011;30529;53.570;9.964;2022-11-11T04:11:33;8.73;;;4.03;;
44816;SDS011;30529;53.570;9.964;2022-11-11T04:14:08;8.93;;;4.00;;
44816;SDS011;30529;53.570;9.964;2022-11-11T04:16:54;7.80;;;3.73;;
44816;SDS011;30529;53.570;9.964;2022-11-11T04:19:25;9.07;;;4.07;;
44816;SDS011;30529;53.570;9.964;2022-11-11T04:22:09;8.17;;;3.67;;
44816;SDS011;30529;53.570;9.964;2022-11-11T04:24:39;10.23;;;4.27;;
44816;SDS011;30529;53.570;9.964;2022-11-11T04:27:23;11.97;;;3.70;;
44816;SDS011;30529;53.570;9.964;2022-11-11T04:29:50;9.07;;;3.87;;
44816;SDS011;30529;53.570;9.964;2022-11-11T04:32:18;10.10;;;3.70;;
44816;SDS011;30529;53.570;9.964;2022-11-11T04:35:01;8.80;;;4.40;;
44816;SDS011;30529;53.570;9.964;2022-11-11T04:37:44;8.87;;;4.10;;
44816;SDS011;30529;53.570;9.964;2022-11-11T04:40:14;8.23;;;4.00;;
44816;SDS011;30529;53.570;9.964;2022-11-11T04:43:00;11.03;;;4.27;;
44816;SDS011;30529;53.570;9.964;2022-11-11T04:45:26;12.20;;;4.50;;
44816;SDS011;30529;53.570;9.964;2022-11-11T04:47:59;11.40;;;3.97;;
44816;SDS011;30529;53.570;9.964;2022-11-11T04:50:31;6.97;;;3.63;;
44816;SDS011;30529;53.570;9.964;2022-11-11T04:52:59;13.20;;;4.80;;
44816;SDS011;30529;53.570;9.964;2022-11-11T04:55:26;13.60;;;5.20;;
44816;SDS011;30529;53.570;9.964;2022-11-11T04:58:11;7.13;;;3.60;;
44816;SDS011;30529;53.570;9.964;2022-11-11T05:00:38;7.87;;;4.57;;
44816;SDS011;30529;53.570;9.964;2022-11-11T05:03:04;8.60;;;4.27;;
44816;SDS011;30529;53.570;9.964;2022-11-11T05:05:47;9.40;;;3.93;;
44816;SDS011;30529;53.570;9.964;2022-11-11T05:08:34;9.63;;;4.00;;
44816;SDS011;30529;53.570;9.964;2022-11-11T05:11:26;10.47;;;4.47;;
44816;SDS011;30529;53.570;9.964;2022-11-11T05:13:58;10.30;;;3.97;;
44816;SDS011;30529;53.570;9.964;2022-11-11T05:16:47;9.87;;;4.00;;
44816;SDS011;30529;53.570;9.964;2022-11-11T05:19:34;6.77;;;4.17;;
44816;SDS011;30529;53.570;9.964;2022-11-11T05:24:51;10.93;;;4.60;;
44816;SDS011;30529;53.570;9.964;2022-11-11T05:27:36;8.93;;;4.23;;
44816;SDS011;30529;53.570;9.964;2022-11-11T05:30:03;7.73;;;3.87;;
44816;SDS011;30529;53.570;9.964;2022-11-11T05:32:30;12.33;;;5.03;;
44816;SDS011;30529;53.570;9.964;2022-11-11T05:34:56;8.20;;;4.27;;
44816;SDS011;30529;53.570;9.964;2022-11-11T05:37:23;8.53;;;3.93;;
44816;SDS011;30529;53.570;9.964;2022-11-11T05:39:49;9.07;;;4.93;;
44816;SDS011;30529;53.570;9.964;2022-11-11T05:42:15;12.93;;;5.03;;
44816;SDS011;30529;53.570;9.964;2022-11-11T05:44:42;9.70;;;4.50;;
44816;SDS011;30529;53.570;9.964;2022-11-11T05:47:08;12.70;;;4.87;;
44816;SDS011;30529;53.570;9.964;2022-11-11T05:49:34;10.63;;;5.50;;
44816;SDS011;30529;53.570;9.964;2022-11-11T05:52:00;11.53;;;4.67;;
44816;SDS011;30529;53.570;9.964;2022-11-11T05:54:27;11.57;;;5.03;;
44816;SDS011;30529;53.570;9.964;2022-11-11T05:56:53;11.47;;;4.90;;
44816;SDS011;30529;53.570;9.964;2022-11-11T05:59:19;11.40;;;4.80;;
44816;SDS011;30529;53.570;9.964;2022-11-11T06:01:45;15.60;;;5.77;;
44816;SDS011;30529;53.570;9.964;2022-11-11T06:04:16;11.20;;;6.33;;
44816;SDS011;30529;53.570;9.964;2022-11-11T06:06:42;9.77;;;5.93;;
44816;SDS011;30529;53.570;9.964;2022-11-11T06:09:08;9.67;;;5.63;;
44816;SDS011;30529;53.570;9.964;2022-11-11T06:11:34;14.93;;;6.47;;
44816;SDS011;30529;53.570;9.964;2022-11-11T06:14:00;12.00;;;6.20;;
44816;SDS011;30529;53.570;9.964;2022-11-11T06:16:27;12.97;;;5.73;;
44816;SDS011;30529;53.570;9.964;2022-11-11T06:18:53;12.53;;;5.50;;
44816;SDS011;30529;53.570;9.964;2022-11-11T06:21:19;10.37;;;5.87;;
44816;SDS011;30529;53.570;9.964;2022-11-11T06:23:46;13.10;;;6.83;;
44816;SDS011;30529;53.570;9.964;2022-11-11T06:26:12;13.73;;;5.77;;
44816;SDS011;30529;53.570;9.964;2022-11-11T06:31:08;11.80;;;5.87;;
44816;SDS011;30529;53.570;9.964;2022-11-11T06:33:35;12.73;;;6.33;;
44816;SDS011;30529;53.570;9.964;2022-11-11T06:36:03;12.47;;;6.87;;
44816;SDS011;30529;53.570;9.964;2022-11-11T06:38:30;16.50;;;7.40;;
44816;SDS011;30529;53.570;9.964;2022-11-11T06:40:56;10.77;;;6.00;;
44816;SDS011;30529;53.570;9.964;2022-11-11T06:43:23;14.27;;;7.20;;
44816;SDS011;30529;53.570;9.964;2022-11-11T06:45:50;16.57;;;7.23;;
44816;SDS011;30529;53.570;9.964;2022-11-11T06:48:17;14.17;;;8.33;;
44816;SDS011;30529;53.570;9.964;2022-11-11T06:50:44;14.13;;;6.57;;
44816;SDS011;30529;53.570;9.964;2022-11-11T06:53:11;16.20;;;7.53;;
44816;SDS011;30529;53.570;9.964;2022-11-11T06:55:39;14.03;;;7.13;;
44816;SDS011;30529;53.570;9.964;2022-11-11T06:58:10;14.63;;;7.77;;
44816;SDS011;30529;53.570;9.964;2022-11-11T07:00:41;15.33;;;7.70;;
44816;SDS011;30529;53.570;9.964;2022-11-11T07:03:08;15.30;;;7.77;;
44816;SDS011;30529;53.570;9.964;2022-11-11T07:05:36;22.93;;;8.30;;
44816;SDS011;30529;53.570;9.964;2022-11-11T07:08:03;15.13;;;8.10;;
44816;SDS011;30529;53.570;9.964;2022-11-11T07:10:32;12.90;;;8.03;;
44816;SDS011;30529;53.570;9.964;2022-11-11T07:13:00;11.23;;;7.90;;
44816;SDS011;30529;53.570;9.964;2022-11-11T07:15:26;20.07;;;8.50;;
44816;SDS011;30529;53.570;9.964;2022-11-11T07:17:53;17.30;;;8.90;;
44816;SDS011;30529;53.570;9.964;2022-11-11T07:20:19;18.40;;;8.20;;
44816;SDS011;30529;53.570;9.964;2022-11-11T07:22:45;18.20;;;7.73;;
44816;SDS011;30529;53.570;9.964;2022-11-11T07:25:12;15.93;;;8.17;;
44816;SDS011;30529;53.570;9.964;2022-11-11T07:27:38;14.83;;;7.80;;
44816;SDS011;30529;53.570;9.964;2022-11-11T07:30:05;18.93;;;8.80;;
44816;SDS011;30529;53.570;9.964;2022-11-11T07:32:32;20.07;;;7.97;;
44816;SDS011;30529;53.570;9.964;2022-11-11T07:34:58;12.27;;;7.97;;
44816;SDS011;30529;53.570;9.964;2022-11-11T07:37:26;18.67;;;8.37;;
44816;SDS011;30529;53.570;9.964;2022-11-11T07:39:52;17.03;;;9.10;;
44816;SDS011;30529;53.570;9.964;2022-11-11T07:42:19;15.33;;;7.97;;
44816;SDS011;30529;53.570;9.964;2022-11-11T07:44:45;19.13;;;8.70;;
44816;SDS011;30529;53.570;9.964;2022-11-11T07:47:11;18.40;;;9.33;;
44816;SDS011;30529;53.570;9.964;2022-11-11T07:49:37;15.67;;;9.30;;
44816;SDS011;30529;53.570;9.964;2022-11-11T07:52:03;17.57;;;9.77;;
44816;SDS011;30529;53.570;9.964;2022-11-11T07:54:29;16.73;;;9.03;;
44816;SDS011;30529;53.570;9.964;2022-11-11T07:56:55;17.83;;;9.53;;
44816;SDS011;30529;53.570;9.964;2022-11-11T07:59:22;20.80;;;10.23;;
44816;SDS011;30529;53.570;9.964;2022-11-11T08:01:48;22.03;;;9.40;;
44816;SDS011;30529;53.570;9.964;2022-11-11T08:04:14;17.80;;;9.20;;
44816;SDS011;30529;53.570;9.964;2022-11-11T08:06:40;16.20;;;9.33;;
44816;SDS011;30529;53.570;9.964;2022-11-11T08:09:06;20.50;;;9.43;;
44816;SDS011;30529;53.570;9.964;2022-11-11T08:11:32;18.77;;;9.27;;
44816;SDS011;30529;53.570;9.964;2022-11-11T08:14:17;19.13;;;9.70;;
44816;SDS011;30529;53.570;9.964;2022-11-11T08:16:43;15.13;;;8.87;;
44816;SDS011;30529;53.570;9.964;2022-11-11T08:19:10;22.10;;;10.37;;
44816;SDS011;30529;53.570;9.964;2022-11-11T08:21:36;14.67;;;9.63;;
44816;SDS011;30529;53.570;9.964;2022-11-11T08:24:02;19.27;;;9.43;;
44816;SDS011;30529;53.570;9.964;2022-11-11T08:26:29;20.47;;;10.03;;
44816;SDS011;30529;53.570;9.964;2022-11-11T08:28:55;19.10;;;9.83;;
44816;SDS011;30529;53.570;9.964;2022-11-11T08:31:21;20.10;;;10.77;;
44816;SDS011;30529;53.570;9.964;2022-11-11T08:33:52;16.27;;;9.50;;
44816;SDS011;30529;53.570;9.964;2022-11-11T08:36:18;17.83;;;9.27;;
44816;SDS011;30529;53.570;9.964;2022-11-11T08:38:44;23.13;;;10.50;;
44816;SDS011;30529;53.570;9.964;2022-11-11T08:41:10;16.17;;;9.30;;
44816;SDS011;30529;53.570;9.964;2022-11-11T08:43:36;24.90;;;10.47;;
44816;SDS011;30529;53.570;9.964;2022-11-11T08:46:03;17.83;;;8.83;;
44816;SDS011;30529;53.570;9.964;2022-11-11T08:48:30;25.03;;;10.43;;
44816;SDS011;30529;53.570;9.964;2022-11-11T08:50:57;19.57;;;9.17;;
44816;SDS011;30529;53.570;9.964;2022-11-11T08:53:26;16.63;;;9.70;;
44816;SDS011;30529;53.570;9.964;2022-11-11T08:55:52;19.67;;;10.27;;
44816;SDS011;30529;53.570;9.964;2022-11-11T08:58:19;14.20;;;8.60;;
44816;SDS011;30529;53.570;9.964;2022-11-11T09:00:48;18.97;;;10.20;;
44816;SDS011;30529;53.570;9.964;2022-11-11T09:03:14;16.23;;;10.00;;
44816;SDS011;30529;53.570;9.964;2022-11-11T09:05:40;17.23;;;9.80;;
44816;SDS011;30529;53.570;9.964;2022-11-11T09:08:07;15.60;;;9.43;;
44816;SDS011;30529;53.570;9.964;2022-11-11T09:10:33;19.13;;;10.27;;
44816;SDS011;30529;53.570;9.964;2022-11-11T09:13:00;18.17;;;9.20;;
44816;SDS011;30529;53.570;9.964;2022-11-11T09:15:27;17.30;;;9.97;;
44816;SDS011;30529;53.570;9.964;2022-11-11T09:17:57;17.40;;;10.27;;
44816;SDS011;30529;53.570;9.964;2022-11-11T09:20:24;16.13;;;10.33;;
44816;SDS011;30529;53.570;9.964;2022-11-11T09:22:51;17.63;;;9.13;;
44816;SDS011;30529;53.570;9.964;2022-11-11T09:25:20;24.00;;;10.43;;
44816;SDS011;30529;53.570;9.964;2022-11-11T09:27:57;18.67;;;10.40;;
44816;SDS011;30529;53.570;9.964;2022-11-11T09:30:25;17.37;;;9.60;;
44816;SDS011;30529;53.570;9.964;2022-11-11T09:32:52;18.00;;;9.63;;
44816;SDS011;30529;53.570;9.964;2022-11-11T09:35:19;17.13;;;10.40;;
44816;SDS011;30529;53.570;9.964;2022-11-11T09:37:55;20.07;;;10.07;;
44816;SDS011;30529;53.570;9.964;2022-11-11T09:40:23;13.87;;;9.37;;
44816;SDS011;30529;53.570;9.964;2022-11-11T09:42:59;15.27;;;10.67;;
44816;SDS011;30529;53.570;9.964;2022-11-11T09:45:43;20.97;;;10.57;;
44816;SDS011;30529;53.570;9.964;2022-11-11T09:48:33;16.27;;;9.47;;
44816;SDS011;30529;53.570;9.964;2022-11-11T09:52:07;19.60;;;8.97;;
44816;SDS011;30529;53.570;9.964;2022-11-11T09:54:32;14.93;;;9.33;;
44816;SDS011;30529;53.570;9.964;2022-11-11T09:57:06;16.33;;;9.50;;
44816;SDS011;30529;53.570;9.964;2022-11-11T09:59:55;16.17;;;9.70;;
44816;SDS011;30529;53.570;9.964;2022-11-11T10:02:38;21.97;;;11.20;;
44816;SDS011;30529;53.570;9.964;2022-11-11T10:05:12;17.57;;;10.43;;
44816;SDS011;30529;53.570;9.964;2022-11-11T10:07:46;21.07;;;10.07;;
44816;SDS011;30529;53.570;9.964;2022-11-11T10:13:14;19.30;;;10.53;;
44816;SDS011;30529;53.570;9.964;2022-11-11T10:21:22;19.43;;;10.07;;
44816;SDS011;30529;53.570;9.964;2022-11-11T10:23:58;15.83;;;8.93;;
44816;SDS011;30529;53.570;9.964;2022-11-11T10:26:37;20.27;;;9.87;;
44816;SDS011;30529;53.570;9.964;2022-11-11T10:29:08;16.17;;;10.30;;
44816;SDS011;30529;53.570;9.964;2022-11-11T10:31:54;19.80;;;9.33;;
44816;SDS011;30529;53.570;9.964;2022-11-11T10:34:38;18.73;;;10.03;;
44816;SDS011;30529;53.570;9.964;2022-11-11T10:37:13;19.27;;;10.77;;
44816;SDS011;30529;53.570;9.964;2022-11-11T10:42:33;16.60;;;9.00;;
44816;SDS011;30529;53.570;9.964;2022-11-11T10:45:00;24.67;;;10.67;;
44816;SDS011;30529;53.570;9.964;2022-11-11T10:52:47;17.90;;;10.03;;
44816;SDS011;30529;53.570;9.964;2022-11-11T10:55:27;17.30;;;9.67;;
44816;SDS011;30529;53.570;9.964;2022-11-11T11:00:26;22.97;;;10.77;;
44816;SDS011;30529;53.570;9.964;2022-11-11T11:02:58;17.13;;;10.00;;
44816;SDS011;30529;53.570;9.964;2022-11-11T11:08:14;12.73;;;9.30;;
44816;SDS011;30529;53.570;9.964;2022-11-11T11:10:48;15.90;;;10.27;;
44816;SDS011;30529;53.570;9.964;2022-11-11T11:13:30;16.87;;;9.83;;
44816;SDS011;30529;53.570;9.964;2022-11-11T11:16:05;18.53;;;10.27;;
44816;SDS011;30529;53.570;9.964;2022-11-11T11:18:39;18.73;;;10.83;;
44816;SDS011;30529;53.570;9.964;2022-11-11T11:21:05;18.37;;;10.63;;
44816;SDS011;30529;53.570;9.964;2022-11-11T11:23:36;16.83;;;9.60;;
44816;SDS011;30529;53.570;9.964;2022-11-11T11:26:03;16.63;;;10.17;;
44816;SDS011;30529;53.570;9.964;2022-11-11T11:28:30;16.77;;;10.83;;
44816;SDS011;30529;53.570;9.964;2022-11-11T11:31:05;20.27;;;10.60;;
44816;SDS011;30529;53.570;9.964;2022-11-11T11:33:48;16.33;;;9.77;;
44816;SDS011;30529;53.570;9.964;2022-11-11T11:36:19;19.87;;;9.73;;
44816;SDS011;30529;53.570;9.964;2022-11-11T11:38:46;19.13;;;10.27;;
44816;SDS011;30529;53.570;9.964;2022-11-11T11:41:15;15.93;;;9.70;;
44816;SDS011;30529;53.570;9.964;2022-11-11T11:43:45;17.93;;;9.67;;
44816;SDS011;30529;53.570;9.964;2022-11-11T11:51:33;14.23;;;10.20;;
44816;SDS011;30529;53.570;9.964;2022-11-11T11:57:30;17.93;;;10.83;;
44816;SDS011;30529;53.570;9.964;2022-11-11T12:00:34;16.93;;;10.57;;
44816;SDS011;30529;53.570;9.964;2022-11-11T12:06:03;16.97;;;10.17;;
44816;SDS011;30529;53.570;9.964;2022-11-11T12:14:23;19.40;;;10.97;;
44816;SDS011;30529;53.570;9.964;2022-11-11T12:22:46;19.10;;;10.87;;
44816;SDS011;30529;53.570;9.964;2022-11-11T12:28:30;19.03;;;10.60;;
44816;SDS011;30529;53.570;9.964;2022-11-11T12:37:47;17.17;;;9.27;;
44816;SDS011;30529;53.570;9.964;2022-11-11T12:43:23;17.67;;;9.57;;
44816;SDS011;30529;53.570;9.964;2022-11-11T12:46:09;15.67;;;10.20;;
44816;SDS011;30529;53.570;9.964;2022-11-11T12:55:03;14.70;;;9.80;;
44816;SDS011;30529;53.570;9.964;2022-11-11T13:01:09;15.13;;;9.83;;
44816;SDS011;30529;53.570;9.964;2022-11-11T13:03:57;13.30;;;9.87;;
44816;SDS011;30529;53.570;9.964;2022-11-11T13:06:52;16.63;;;9.23;;
44816;SDS011;30529;53.570;9.964;2022-11-11T13:15:17;15.87;;;9.93;;
44816;SDS011;30529;53.570;9.964;2022-11-11T13:17:48;14.27;;;10.17;;
44816;SDS011;30529;53.570;9.964;2022-11-11T13:23:08;14.50;;;9.80;;
44816;SDS011;30529;53.570;9.964;2022-11-11T13:25:36;15.93;;;10.60;;
44816;SDS011;30529;53.570;9.964;2022-11-11T13:28:13;17.13;;;10.60;;
44816;SDS011;30529;53.570;9.964;2022-11-11T13:33:55;17.07;;;10.70;;
44816;SDS011;30529;53.570;9.964;2022-11-11T13:36:27;14.27;;;9.60;;
44816;SDS011;30529;53.570;9.964;2022-11-11T13:39:01;13.00;;;10.27;;
44816;SDS011;30529;53.570;9.964;2022-11-11T13:41:30;13.77;;;9.77;;
44816;SDS011;30529;53.570;9.964;2022-11-11T13:43:58;15.80;;;9.83;;
44816;SDS011;30529;53.570;9.964;2022-11-11T13:46:35;16.33;;;10.53;;
44816;SDS011;30529;53.570;9.964;2022-11-11T13:49:30;15.90;;;10.50;;
44816;SDS011;30529;53.570;9.964;2022-11-11T13:52:19;20.20;;;11.20;;
44816;SDS011;30529;53.570;9.964;2022-11-11T13:54:49;13.23;;;10.17;;
44816;SDS011;30529;53.570;9.964;2022-11-11T13:57:21;15.47;;;11.17;;
44816;SDS011;30529;53.570;9.964;2022-11-11T13:59:56;12.40;;;10.60;;
44816;SDS011;30529;53.570;9.964;2022-11-11T14:02:27;15.57;;;11.00;;
44816;SDS011;30529;53.570;9.964;2022-11-11T14:07:46;15.67;;;10.37;;
44816;SDS011;30529;53.570;9.964;2022-11-11T14:12:45;14.53;;;10.90;;
44816;SDS011;30529;53.570;9.964;2022-11-11T14:18:29;15.67;;;10.43;;
44816;SDS011;30529;53.570;9.964;2022-11-11T14:21:06;14.27;;;10.40;;
44816;SDS011;30529;53.570;9.964;2022-11-11T14:23:40;14.97;;;10.63;;
44816;SDS011;30529;53.570;9.964;2022-11-11T14:33:59;14.43;;;10.40;;
44816;SDS011;30529;53.570;9.964;2022-11-11T14:36:54;14.60;;;9.60;;
44816;SDS011;30529;53.570;9.964;2022-11-11T14:44:58;11.80;;;9.63;;
44816;SDS011;30529;53.570;9.964;2022-11-11T14:50:51;16.83;;;10.53;;
44816;SDS011;30529;53.570;9.964;2022-11-11T14:52:57;12.93;;;9.40;;
44816;SDS011;30529;53.570;9.964;2022-11-11T14:55:31;13.57;;;9.23;;
44816;SDS011;30529;53.570;9.964;2022-11-11T14:58:04;15.23;;;9.60;;
44816;SDS011;30529;53.570;9.964;2022-11-11T15:01:02;15.27;;;9.90;;
44816;SDS011;30529;53.570;9.964;2022-11-11T15:03:48;14.43;;;9.17;;
44816;SDS011;30529;53.570;9.964;2022-11-11T15:06:30;13.77;;;9.87;;
44816;SDS011;30529;53.570;9.964;2022-11-11T15:11:50;13.43;;;9.73;;
44816;SDS011;30529;53.570;9.964;2022-11-11T15:14:40;13.93;;;9.73;;
44816;SDS011;30529;53.570;9.964;2022-11-11T15:17:37;11.50;;;8.93;;
44816;SDS011;30529;53.570;9.964;2022-11-11T15:39:17;11.93;;;9.27;;
44816;SDS011;30529;53.570;9.964;2022-11-11T15:41:48;12.37;;;9.40;;
44816;SDS011;30529;53.570;9.964;2022-11-11T15:44:26;11.93;;;9.70;;
44816;SDS011;30529;53.570;9.964;2022-11-11T15:46:56;11.30;;;8.70;;
44816;SDS011;30529;53.570;9.964;2022-11-11T15:52:24;12.87;;;8.90;;
44816;SDS011;30529;53.570;9.964;2022-11-11T15:55:08;16.33;;;9.67;;
44816;SDS011;30529;53.570;9.964;2022-11-11T15:57:45;16.07;;;10.20;;
44816;SDS011;30529;53.570;9.964;2022-11-11T16:02:50;12.07;;;8.67;;
44816;SDS011;30529;53.570;9.964;2022-11-11T16:05:23;14.70;;;8.97;;
44816;SDS011;30529;53.570;9.964;2022-11-11T16:07:55;12.00;;;8.57;;
44816;SDS011;30529;53.570;9.964;2022-11-11T16:10:31;13.87;;;9.43;;
44816;SDS011;30529;53.570;9.964;2022-11-11T16:13:16;13.57;;;9.67;;
44816;SDS011;30529;53.570;9.964;2022-11-11T16:15:51;14.87;;;9.50;;
44816;SDS011;30529;53.570;9.964;2022-11-11T16:18:22;13.10;;;9.70;;
44816;SDS011;30529;53.570;9.964;2022-11-11T16:21:00;12.40;;;9.03;;
44816;SDS011;30529;53.570;9.964;2022-11-11T16:23:31;13.97;;;9.37;;
44816;SDS011;30529;53.570;9.964;2022-11-11T16:25:58;13.03;;;9.20;;
44816;SDS011;30529;53.570;9.964;2022-11-11T16:28:29;15.83;;;10.10;;
44816;SDS011;30529;53.570;9.964;2022-11-11T16:31:20;18.83;;;9.67;;
44816;SDS011;30529;53.570;9.964;2022-11-11T16:33:52;15.57;;;10.40;;
44816;SDS011;30529;53.570;9.964;2022-11-11T16:36:19;17.17;;;10.23;;
44816;SDS011;30529;53.570;9.964;2022-11-11T16:38:45;15.57;;;10.33;;
44816;SDS011;30529;53.570;9.964;2022-11-11T16:41:24;13.77;;;9.57;;
44816;SDS011;30529;53.570;9.964;2022-11-11T16:43:53;13.47;;;9.07;;
44816;SDS011;30529;53.570;9.964;2022-11-11T16:46:39;15.07;;;10.13;;
44816;SDS011;30529;53.570;9.964;2022-11-11T16:49:18;20.87;;;11.70;;
44816;SDS011;30529;53.570;9.964;2022-11-11T16:51:55;11.93;;;9.27;;
44816;SDS011;30529;53.570;9.964;2022-11-11T16:54:33;13.60;;;9.43;;
44816;SDS011;30529;53.570;9.964;2022-11-11T16:57:02;14.80;;;10.20;;
44816;SDS011;30529;53.570;9.964;2022-11-11T16:59:36;13.83;;;10.20;;
44816;SDS011;30529;53.570;9.964;2022-11-11T17:02:16;16.57;;;8.87;;
44816;SDS011;30529;53.570;9.964;2022-11-11T17:04:47;14.90;;;9.13;;
44816;SDS011;30529;53.570;9.964;2022-11-11T17:12:43;12.93;;;9.13;;
44816;SDS011;30529;53.570;9.964;2022-11-11T17:15:11;17.17;;;12.73;;
44816;SDS011;30529;53.570;9.964;2022-11-11T17:17:39;11.93;;;9.17;;
44816;SDS011;30529;53.570;9.964;2022-11-11T17:22:50;12.30;;;9.13;;
44816;SDS011;30529;53.570;9.964;2022-11-11T17:25:18;13.60;;;9.97;;
44816;SDS011;30529;53.570;9.964;2022-11-11T17:27:44;13.70;;;9.60;;
44816;SDS011;30529;53.570;9.964;2022-11-11T17:30:11;15.60;;;9.67;;
44816;SDS011;30529;53.570;9.964;2022-11-11T17:32:38;13.07;;;10.13;;